Main page
METAR-TAF:

METAR-TAF

Airports :

Murmansk Airport

Murmansk, Russia

latitude: 68-58N, longitude: 033-03E, elevation: 51 m

Current weather observation

The report was made 24 minutes ago, at 10:30 UTC
Wind 4 kt from the West/Northwest
Temperature 24°C
Humidity 50%
Pressure 1016 hPa
Visibility 10 km or more
Scattered clouds at a height of 4600 ft

METAR: ULMM 201030Z 30002MPS 9999 SCT046 24/13 Q1016 R13/090070 NOSIG RMK QFE755

Time: 13:54 (10:54 UTC)

Forecast

The report was made 3 hours and 4 minutes ago, at 07:50 UTC
Forecast valid from 20 at 09 UTC to 21 at 09 UTC
Wind 6 kt from the East/Southeast
Visibility 10 km or more
Scattered clouds at a height of 4000 ft
Becoming
from 20 at 10 UTC to 20 at 11 UTC
Wind 6 kt from the Northeast

TAF: ULMM 200750Z 2009/2109 12003MPS 9999 SCT040 BECMG 2010/2011 05003MPS

Weather observations and forecasts of more than 4000 airports (METAR and TAF reports).

The available stations are represented by yellow and red dots on the map.

Hover mouse over dot to see the name of the station.

Then click to see weather observations and forecasts.

To change the map : click on the green buttons with a black cross to zoom in, on the green button with a dash to zoom out, or on the green arrows for adjacent maps.


METAR-TAF: